Terminal Aerodrome Forecast
Issued by NWS

Home | Current Version | Previous Version | Text Only | Print | Product List | Glossary On
Versions: 1 2 3 4 5 6 7 8 9 10 11 12 13 14 15 16
842
FTUS41 KBGM 211733
TAFITH
TAF
KITH 211733Z 2118/2218 17012G17KT P6SM BKN200
     FM220200 18008KT P6SM -SHRA OVC060
     FM220600 18006KT P6SM OVC025=

USA.gov is the U.S. government's official web portal to all federal, state and local government web resources and services.